Time;durP1;ratioP1;P1;durP2;ratioP2;P2;SDS_P1;SDS_P2;PMS_P1;PMS_P2;Temp;Humidity;BMP_temperature;BMP_pressure;BME280_temperature;BME280_humidity;BME280_pressure;Samples;Min_cycle;Max_cycle;Signal;HPM_P1;HPM_P2
2022/10/25 00:02:21;;;;;;;0.30;0.30;;;;;;;;;;1862821;76;26152;-44
2022/10/25 00:04:48;;;;;;;0.30;0.30;;;;;;;;;;1863423;76;26757;-47
2022/10/25 00:07:16;;;;;;;1.02;0.23;;;;;;;;;;1868758;76;26234;-50
2022/10/25 00:09:43;;;;;;;1.07;0.28;;;;;;;;;;1860045;76;26301;-48
2022/10/25 00:12:10;;;;;;;0.30;0.30;;;;;;;;;;1873307;76;27450;-55
2022/10/25 00:14:37;;;;;;;0.62;0.30;;;;;;;;;;1862575;76;26547;-48
2022/10/25 00:17:05;;;;;;;0.33;0.33;;;;;;;;;;1857355;77;26293;-49
2022/10/25 00:19:32;;;;;;;0.23;0.23;;;;;;;;;;1854427;77;26789;-49
2022/10/25 00:22:00;;;;;;;0.20;0.20;;;;;;;;;;1851511;77;26306;-50
2022/10/25 00:24:27;;;;;;;0.30;0.30;;;;;;;;;;1854391;77;26202;-57
2022/10/25 00:26:55;;;;;;;0.20;0.20;;;;;;;;;;1845695;77;26203;-47
2022/10/25 00:29:22;;;;;;;0.20;0.20;;;;;;;;;;1850297;77;26300;-47
2022/10/25 00:31:50;;;;;;;0.40;0.40;;;;;;;;;;1846494;77;26236;-50
2022/10/25 00:34:17;;;;;;;0.15;0.15;;;;;;;;;;1853180;77;26678;-43
2022/10/25 00:36:44;;;;;;;1.10;0.40;;;;;;;;;;1852251;77;26268;-43
2022/10/25 00:39:11;;;;;;;0.42;0.42;;;;;;;;;;1851581;77;27450;-43
2022/10/25 00:41:39;;;;;;;0.30;0.30;;;;;;;;;;1852467;77;26645;-47
2022/10/25 00:44:24;;;;;;;0.30;0.30;;;;;;;;;;1857504;76;26235;-45
2022/10/25 00:46:52;;;;;;;2.05;0.40;;;;;;;;;;1859247;77;26219;-45
2022/10/25 00:49:21;;;;;;;0.33;0.33;;;;;;;;;;1863754;77;26243;-52
2022/10/25 00:51:50;;;;;;;0.23;0.10;;;;;;;;;;1850165;77;26274;-48
2022/10/25 00:54:19;;;;;;;0.30;0.30;;;;;;;;;;1858866;77;26211;-44
2022/10/25 00:56:48;;;;;;;0.20;0.20;;;;;;;;;;1846565;77;26334;-47
2022/10/25 00:59:16;;;;;;;0.33;0.30;;;;;;;;;;1851123;77;26234;-55
2022/10/25 01:01:44;;;;;;;0.23;0.23;;;;;;;;;;1850137;77;26828;-44
2022/10/25 01:04:13;;;;;;;0.20;0.20;;;;;;;;;;1859638;77;26253;-47
2022/10/25 01:06:41;;;;;;;0.20;0.20;;;;;;;;;;1855736;77;26549;-43
2022/10/25 01:09:09;;;;;;;1.27;0.30;;;;;;;;;;1862988;77;26377;-46
2022/10/25 01:11:36;;;;;;;0.20;0.20;;;;;;;;;;1852589;77;27304;-42
2022/10/25 01:14:05;;;;;;;0.30;0.30;;;;;;;;;;1860584;77;26227;-43
2022/10/25 01:16:46;;;;;;;0.30;0.30;;;;;;;;;;1848378;77;26284;-52
2022/10/25 01:19:31;;;;;;;0.30;0.30;;;;;;;;;;1843965;77;26350;-49
2022/10/25 01:22:00;;;;;;;0.47;0.30;;;;;;;;;;1848800;77;26789;-47
2022/10/25 01:24:32;;;;;;;0.30;0.30;;;;;;;;;;1850694;77;26822;-43
2022/10/25 01:27:04;;;;;;;0.37;0.37;;;;;;;;;;1849510;77;26271;-47
2022/10/25 01:29:51;;;;;;;0.30;0.30;;;;;;;;;;1857660;77;26769;-46
2022/10/25 01:32:20;;;;;;;0.30;0.30;;;;;;;;;;1848844;77;26374;-43
2022/10/25 01:34:54;;;;;;;0.30;0.30;;;;;;;;;;1845072;77;26227;-50
2022/10/25 01:37:32;;;;;;;0.30;0.30;;;;;;;;;;1844656;77;27407;-44
2022/10/25 01:40:01;;;;;;;0.40;0.40;;;;;;;;;;1852904;77;26252;-42
2022/10/25 01:42:30;;;;;;;0.80;0.40;;;;;;;;;;1844917;76;26298;-57
2022/10/25 01:44:58;;;;;;;0.55;0.40;;;;;;;;;;1853421;77;26293;-47
2022/10/25 01:47:30;;;;;;;0.50;0.50;;;;;;;;;;1855298;77;26273;-45
2022/10/25 01:49:59;;;;;;;0.23;0.23;;;;;;;;;;1845774;77;26231;-43
2022/10/25 01:52:26;;;;;;;0.40;0.40;;;;;;;;;;1859034;77;26420;-44
2022/10/25 01:54:54;;;;;;;0.40;0.40;;;;;;;;;;1858472;77;26220;-44
2022/10/25 01:57:39;;;;;;;0.40;0.40;;;;;;;;;;1855531;76;26206;-48
2022/10/25 02:00:11;;;;;;;0.40;0.40;;;;;;;;;;1844236;77;26319;-44
2022/10/25 02:02:46;;;;;;;0.50;0.50;;;;;;;;;;1851459;77;26215;-50
2022/10/25 02:05:33;;;;;;;0.57;0.57;;;;;;;;;;1861186;77;26253;-46
2022/10/25 02:08:05;;;;;;;0.45;0.45;;;;;;;;;;1858222;77;26211;-48
2022/10/25 02:10:36;;;;;;;0.60;0.60;;;;;;;;;;1859271;77;26227;-45
2022/10/25 02:13:12;;;;;;;0.60;0.60;;;;;;;;;;1852344;76;26244;-43
2022/10/25 02:15:40;;;;;;;0.70;0.70;;;;;;;;;;1862868;75;26285;-44
2022/10/25 02:18:09;;;;;;;0.70;0.70;;;;;;;;;;1842856;77;26207;-49
2022/10/25 02:20:37;;;;;;;0.70;0.70;;;;;;;;;;1849464;77;26190;-45
2022/10/25 02:23:05;;;;;;;0.80;0.80;;;;;;;;;;1847725;76;26707;-42
2022/10/25 02:25:34;;;;;;;2.45;0.68;;;;;;;;;;1860281;77;26211;-45
2022/10/25 02:28:03;;;;;;;0.62;0.62;;;;;;;;;;1860265;77;26481;-46
2022/10/25 02:30:31;;;;;;;0.70;0.70;;;;;;;;;;1849337;77;26265;-45
2022/10/25 02:32:59;;;;;;;0.80;0.80;;;;;;;;;;1841473;77;26693;-48
2022/10/25 02:35:26;;;;;;;0.98;0.98;;;;;;;;;;1852782;77;26662;-44
2022/10/25 02:37:53;;;;;;;0.80;0.80;;;;;;;;;;1853049;77;26198;-48
2022/10/25 02:40:21;;;;;;;0.80;0.80;;;;;;;;;;1845640;77;26240;-43
2022/10/25 02:42:48;;;;;;;0.85;0.85;;;;;;;;;;1853582;77;26271;-45
2022/10/25 02:45:16;;;;;;;1.00;1.00;;;;;;;;;;1845868;77;26199;-43
2022/10/25 02:47:43;;;;;;;0.90;0.90;;;;;;;;;;1854644;77;26308;-48
2022/10/25 02:50:10;;;;;;;0.80;0.80;;;;;;;;;;1861523;77;26840;-50
2022/10/25 02:52:37;;;;;;;1.02;1.02;;;;;;;;;;1861042;77;26679;-44
2022/10/25 02:55:06;;;;;;;1.00;1.00;;;;;;;;;;1855428;76;26210;-47
2022/10/25 02:57:34;;;;;;;0.90;0.90;;;;;;;;;;1858171;77;26664;-45
2022/10/25 03:00:01;;;;;;;0.85;0.85;;;;;;;;;;1848707;77;26273;-41
2022/10/25 03:02:28;;;;;;;0.82;0.82;;;;;;;;;;1853659;77;26217;-47
2022/10/25 03:04:55;;;;;;;0.93;0.93;;;;;;;;;;1850123;77;26377;-42
2022/10/25 03:07:23;;;;;;;1.00;1.00;;;;;;;;;;1861156;77;26205;-41
2022/10/25 03:09:50;;;;;;;1.10;1.10;;;;;;;;;;1857165;77;25876;-51
2022/10/25 03:12:17;;;;;;;1.00;1.00;;;;;;;;;;1849112;77;26216;-44
2022/10/25 03:14:44;;;;;;;1.00;1.00;;;;;;;;;;1831738;77;26290;-48
2022/10/25 03:17:12;;;;;;;1.10;1.10;;;;;;;;;;1813502;78;26398;-43
2022/10/25 03:19:39;;;;;;;1.20;1.20;;;;;;;;;;1809462;78;26308;-54
2022/10/25 03:22:06;;;;;;;1.00;1.00;;;;;;;;;;1820320;78;26836;-49
2022/10/25 03:24:34;;;;;;;1.10;1.10;;;;;;;;;;1810996;78;26294;-44
2022/10/25 03:27:01;;;;;;;1.12;1.12;;;;;;;;;;1798017;78;26284;-41
2022/10/25 03:29:28;;;;;;;1.20;1.20;;;;;;;;;;1787495;78;26712;-41
2022/10/25 03:31:56;;;;;;;1.10;1.10;;;;;;;;;;1796740;78;26833;-45
2022/10/25 03:34:23;;;;;;;1.10;1.10;;;;;;;;;;1790345;78;26232;-40
2022/10/25 03:36:51;;;;;;;1.02;1.02;;;;;;;;;;1795558;78;26373;-45
2022/10/25 03:39:18;;;;;;;1.20;1.20;;;;;;;;;;1788361;78;26730;-44
2022/10/25 03:41:45;;;;;;;1.30;1.30;;;;;;;;;;1807945;78;26694;-50
2022/10/25 03:44:13;;;;;;;1.07;1.07;;;;;;;;;;1811200;78;26280;-43
2022/10/25 03:46:40;;;;;;;1.20;1.20;;;;;;;;;;1805022;78;26258;-42
2022/10/25 03:49:07;;;;;;;1.00;1.00;;;;;;;;;;1796922;78;26270;-40
2022/10/25 03:51:35;;;;;;;1.17;1.17;;;;;;;;;;1800501;78;26709;-41
2022/10/25 03:54:02;;;;;;;1.10;1.10;;;;;;;;;;1815832;78;26895;-49
2022/10/25 03:56:29;;;;;;;1.20;1.20;;;;;;;;;;1803301;78;26270;-51
2022/10/25 03:58:56;;;;;;;1.10;1.10;;;;;;;;;;1791682;78;26267;-47
2022/10/25 04:01:24;;;;;;;1.07;1.07;;;;;;;;;;1813260;78;26167;-41
2022/10/25 04:03:51;;;;;;;1.17;1.17;;;;;;;;;;1807738;78;26247;-47
2022/10/25 04:06:18;;;;;;;1.20;1.20;;;;;;;;;;1802647;78;26244;-43
2022/10/25 04:08:45;;;;;;;1.15;1.15;;;;;;;;;;1807109;78;26350;-48
2022/10/25 04:11:13;;;;;;;1.10;1.10;;;;;;;;;;1824273;78;26256;-59
2022/10/25 04:13:40;;;;;;;1.20;1.20;;;;;;;;;;1813704;78;26265;-47
2022/10/25 04:16:08;;;;;;;0.93;0.93;;;;;;;;;;1820781;78;26300;-40
2022/10/25 04:18:35;;;;;;;1.02;1.02;;;;;;;;;;1802717;78;26268;-39
2022/10/25 04:21:02;;;;;;;1.20;1.20;;;;;;;;;;1805795;78;26397;-53
2022/10/25 04:23:30;;;;;;;1.15;1.15;;;;;;;;;;1810252;78;27311;-44
2022/10/25 04:25:57;;;;;;;1.20;1.20;;;;;;;;;;1815955;78;26279;-45
2022/10/25 04:28:25;;;;;;;1.10;1.10;;;;;;;;;;1805882;78;26264;-44
2022/10/25 04:30:52;;;;;;;1.10;1.10;;;;;;;;;;1809321;78;26317;-50
2022/10/25 04:33:19;;;;;;;1.07;1.07;;;;;;;;;;1814863;78;26215;-46
2022/10/25 04:35:48;;;;;;;1.00;1.00;;;;;;;;;;1805317;78;26283;-49
2022/10/25 04:38:15;;;;;;;1.45;1.40;;;;;;;;;;1825499;78;26596;-42
2022/10/25 04:40:42;;;;;;;1.50;1.50;;;;;;;;;;1825231;78;26322;-41
2022/10/25 04:43:10;;;;;;;1.70;1.60;;;;;;;;;;1802923;78;26264;-44
2022/10/25 04:45:37;;;;;;;2.33;1.80;;;;;;;;;;1811593;78;26269;-40
2022/10/25 04:48:05;;;;;;;2.33;1.80;;;;;;;;;;1799826;78;26294;-40
2022/10/25 04:50:32;;;;;;;2.70;1.95;;;;;;;;;;1791719;78;26880;-41
2022/10/25 04:52:59;;;;;;;1.87;1.77;;;;;;;;;;1802853;78;26642;-40
2022/10/25 04:55:26;;;;;;;1.42;1.40;;;;;;;;;;1818180;78;26648;-49
2022/10/25 04:57:54;;;;;;;2.22;1.60;;;;;;;;;;1829954;78;26508;-43
2022/10/25 05:00:21;;;;;;;1.70;1.60;;;;;;;;;;1819036;78;26314;-43
2022/10/25 05:02:50;;;;;;;1.47;1.37;;;;;;;;;;1802418;78;26300;-47
2022/10/25 05:05:17;;;;;;;1.40;1.32;;;;;;;;;;1819180;78;26326;-41
2022/10/25 05:07:44;;;;;;;1.20;1.20;;;;;;;;;;1811308;78;26714;-52
2022/10/25 05:10:12;;;;;;;1.30;1.30;;;;;;;;;;1813088;78;26737;-46
2022/10/25 05:12:39;;;;;;;1.52;1.30;;;;;;;;;;1823219;78;26264;-45
2022/10/25 05:15:07;;;;;;;1.57;1.47;;;;;;;;;;1817966;78;26280;-48
2022/10/25 05:17:34;;;;;;;1.42;1.32;;;;;;;;;;1839452;77;26697;-41
2022/10/25 05:20:02;;;;;;;1.15;1.15;;;;;;;;;;1828674;77;27063;-47
2022/10/25 05:22:29;;;;;;;1.32;1.32;;;;;;;;;;1841595;77;26192;-44
2022/10/25 05:24:56;;;;;;;1.60;1.50;;;;;;;;;;1852420;77;26235;-45
2022/10/25 05:27:24;;;;;;;1.57;1.22;;;;;;;;;;1862494;77;26681;-44
2022/10/25 05:29:51;;;;;;;3.05;1.30;;;;;;;;;;1858323;77;26747;-41
2022/10/25 05:32:18;;;;;;;1.17;1.17;;;;;;;;;;1841356;77;26734;-44
2022/10/25 05:34:45;;;;;;;1.10;1.10;;;;;;;;;;1846273;77;26786;-50
2022/10/25 05:37:13;;;;;;;1.12;1.02;;;;;;;;;;1855866;77;27374;-45
2022/10/25 05:39:40;;;;;;;1.40;1.30;;;;;;;;;;1831484;77;26236;-41
2022/10/25 05:42:07;;;;;;;1.42;1.32;;;;;;;;;;1841926;77;26261;-49
2022/10/25 05:44:34;;;;;;;1.55;1.47;;;;;;;;;;1834258;77;26402;-41
2022/10/25 05:47:02;;;;;;;1.82;1.50;;;;;;;;;;1836179;77;26157;-47
2022/10/25 05:49:29;;;;;;;2.75;1.60;;;;;;;;;;1833293;77;26227;-42
2022/10/25 05:51:57;;;;;;;6.83;1.85;;;;;;;;;;1839401;77;26275;-56
2022/10/25 05:54:24;;;;;;;1.55;1.50;;;;;;;;;;1828991;76;26333;-52
2022/10/25 05:56:51;;;;;;;4.62;2.85;;;;;;;;;;1834760;77;26267;-52
2022/10/25 05:59:18;;;;;;;1.42;1.40;;;;;;;;;;1754209;81;26295;-46
2022/10/25 06:01:46;;;;;;;1.70;1.47;;;;;;;;;;1838709;77;26287;-46
2022/10/25 06:04:14;;;;;;;1.90;1.67;;;;;;;;;;1819329;77;26755;-45
2022/10/25 06:06:42;;;;;;;1.52;1.42;;;;;;;;;;1836799;77;26237;-45
2022/10/25 06:09:09;;;;;;;1.60;1.60;;;;;;;;;;1820515;77;26766;-49
2022/10/25 06:11:37;;;;;;;1.52;1.30;;;;;;;;;;1831830;77;26249;-42
2022/10/25 06:14:05;;;;;;;1.45;1.45;;;;;;;;;;1833947;77;26696;-48
2022/10/25 06:16:32;;;;;;;2.37;1.40;;;;;;;;;;1825282;77;26444;-47
2022/10/25 06:19:00;;;;;;;1.87;1.37;;;;;;;;;;1802888;79;26342;-42
2022/10/25 06:21:28;;;;;;;1.75;1.47;;;;;;;;;;1814853;78;26291;-42
2022/10/25 06:23:55;;;;;;;1.80;1.70;;;;;;;;;;1800248;77;26244;-49
2022/10/25 06:26:24;;;;;;;1.80;1.70;;;;;;;;;;1792363;78;26327;-44
2022/10/25 06:28:53;;;;;;;2.50;1.67;;;;;;;;;;1804077;78;26242;-47
2022/10/25 06:31:20;;;;;;;1.55;1.50;;;;;;;;;;1808418;78;26667;-41
2022/10/25 06:33:47;;;;;;;1.40;1.40;;;;;;;;;;1803112;78;26349;-47
2022/10/25 06:36:16;;;;;;;1.47;1.47;;;;;;;;;;1793924;78;26380;-52
2022/10/25 06:38:44;;;;;;;1.50;1.50;;;;;;;;;;1779292;78;28430;-43
2022/10/25 06:41:12;;;;;;;1.67;1.52;;;;;;;;;;1797990;78;26770;-48
2022/10/25 06:43:40;;;;;;;1.42;1.40;;;;;;;;;;1802133;78;26255;-45
2022/10/25 06:46:08;;;;;;;1.37;1.37;;;;;;;;;;1791312;78;26294;-49
2022/10/25 06:48:36;;;;;;;1.50;1.50;;;;;;;;;;1798944;78;26817;-45
2022/10/25 06:51:04;;;;;;;1.20;1.20;;;;;;;;;;1803754;78;26337;-41
2022/10/25 06:53:31;;;;;;;1.20;1.20;;;;;;;;;;1801573;78;26756;-44
2022/10/25 06:56:03;;;;;;;1.20;1.20;;;;;;;;;;1798620;78;26266;-44
2022/10/25 06:58:30;;;;;;;1.30;1.20;;;;;;;;;;1801923;78;26844;-46
2022/10/25 07:01:05;;;;;;;1.12;1.12;;;;;;;;;;1804524;78;26267;-45
2022/10/25 07:03:35;;;;;;;1.55;1.17;;;;;;;;;;1803953;78;26300;-45
2022/10/25 07:06:06;;;;;;;1.20;1.20;;;;;;;;;;1798906;78;26247;-42
2022/10/25 07:08:34;;;;;;;1.17;1.17;;;;;;;;;;1803421;78;26868;-45
2022/10/25 07:11:02;;;;;;;1.30;1.20;;;;;;;;;;1801163;78;26348;-43
2022/10/25 07:13:30;;;;;;;1.20;1.20;;;;;;;;;;1797634;78;26673;-47
2022/10/25 07:16:02;;;;;;;1.20;1.20;;;;;;;;;;1794752;78;26356;-51
2022/10/25 07:18:30;;;;;;;1.20;1.20;;;;;;;;;;1805317;78;26432;-46
2022/10/25 07:21:00;;;;;;;1.00;1.00;;;;;;;;;;1802656;78;26354;-48
2022/10/25 07:23:28;;;;;;;1.00;1.00;;;;;;;;;;1790227;78;26241;-52
2022/10/25 07:25:55;;;;;;;1.20;1.20;;;;;;;;;;1803332;78;26283;-47
2022/10/25 07:28:22;;;;;;;1.10;1.10;;;;;;;;;;1781479;78;26217;-46
2022/10/25 07:30:50;;;;;;;1.12;1.12;;;;;;;;;;1801359;78;26266;-45
2022/10/25 07:33:18;;;;;;;1.10;1.10;;;;;;;;;;1795697;78;26278;-50
2022/10/25 07:35:46;;;;;;;1.20;1.20;;;;;;;;;;1805741;78;26272;-46
2022/10/25 07:38:14;;;;;;;1.10;1.10;;;;;;;;;;1802878;78;26361;-47
2022/10/25 07:40:41;;;;;;;1.02;1.02;;;;;;;;;;1804979;78;26855;-47
2022/10/25 07:43:09;;;;;;;1.10;1.10;;;;;;;;;;1814060;78;26276;-44
2022/10/25 07:45:37;;;;;;;1.05;1.05;;;;;;;;;;1802656;78;26823;-46
2022/10/25 07:48:05;;;;;;;1.10;1.10;;;;;;;;;;1807211;78;26318;-44
2022/10/25 07:50:32;;;;;;;1.12;1.12;;;;;;;;;;1804837;78;26764;-52
2022/10/25 07:52:59;;;;;;;1.15;1.10;;;;;;;;;;1809578;78;26669;-51
2022/10/25 07:55:26;;;;;;;1.57;1.05;;;;;;;;;;1797247;78;26898;-43
2022/10/25 07:57:55;;;;;;;1.65;0.90;;;;;;;;;;1803313;78;26241;-45
2022/10/25 08:00:22;;;;;;;1.17;1.17;;;;;;;;;;1805379;78;25430;-40
2022/10/25 08:02:50;;;;;;;1.00;1.00;;;;;;;;;;1804975;78;26341;-47
2022/10/25 08:05:17;;;;;;;1.00;1.00;;;;;;;;;;1822464;78;26331;-44
2022/10/25 08:07:44;;;;;;;0.85;0.85;;;;;;;;;;1810111;78;26276;-39
2022/10/25 08:10:12;;;;;;;1.15;1.00;;;;;;;;;;1813332;78;27109;-42
2022/10/25 08:12:39;;;;;;;0.90;0.90;;;;;;;;;;1796135;78;26271;-44
2022/10/25 08:15:06;;;;;;;0.90;0.90;;;;;;;;;;1812177;78;26264;-39
2022/10/25 08:17:34;;;;;;;1.00;1.00;;;;;;;;;;1825145;77;26216;-45
2022/10/25 08:20:01;;;;;;;0.98;0.98;;;;;;;;;;1842803;77;25956;-39
2022/10/25 08:22:28;;;;;;;1.67;0.80;;;;;;;;;;1827751;77;26550;-44
2022/10/25 08:24:56;;;;;;;0.80;0.80;;;;;;;;;;1827509;77;26226;-44
2022/10/25 08:27:23;;;;;;;1.00;1.00;;;;;;;;;;1823321;77;26251;-43
2022/10/25 08:29:50;;;;;;;0.90;0.90;;;;;;;;;;1817529;77;27205;-42
2022/10/25 08:32:17;;;;;;;0.90;0.90;;;;;;;;;;1825317;77;26855;-51
2022/10/25 08:34:45;;;;;;;0.88;0.88;;;;;;;;;;1835136;77;26851;-53
2022/10/25 08:37:12;;;;;;;1.00;1.00;;;;;;;;;;1834944;77;26659;-53
2022/10/25 08:39:39;;;;;;;0.80;0.80;;;;;;;;;;1839858;77;26247;-46
2022/10/25 08:42:07;;;;;;;0.90;0.90;;;;;;;;;;1824319;76;26320;-42
2022/10/25 08:44:45;;;;;;;0.90;0.90;;;;;;;;;;1822911;77;26597;-45
2022/10/25 08:47:13;;;;;;;1.02;1.02;;;;;;;;;;1832907;76;26216;-46
2022/10/25 08:49:42;;;;;;;1.00;1.00;;;;;;;;;;1841035;77;27133;-44
2022/10/25 08:52:27;;;;;;;0.80;0.80;;;;;;;;;;1819098;77;26768;-45
2022/10/25 08:54:56;;;;;;;0.90;0.90;;;;;;;;;;1837388;77;27355;-53
2022/10/25 08:57:24;;;;;;;1.67;1.00;;;;;;;;;;1824289;77;26617;-42
2022/10/25 08:59:55;;;;;;;0.88;0.88;;;;;;;;;;1836521;77;26266;-46
2022/10/25 09:02:24;;;;;;;1.00;1.00;;;;;;;;;;1832107;77;26224;-43
2022/10/25 09:04:52;;;;;;;0.95;0.95;;;;;;;;;;1844341;77;26851;-42
2022/10/25 09:07:22;;;;;;;0.93;0.93;;;;;;;;;;1831786;77;26270;-44
2022/10/25 09:10:07;;;;;;;0.93;0.93;;;;;;;;;;1840153;77;26657;-58
2022/10/25 09:12:39;;;;;;;1.02;1.02;;;;;;;;;;1833110;77;27801;-52
2022/10/25 09:15:11;;;;;;;4.03;1.10;;;;;;;;;;1855633;77;26220;-47
2022/10/25 09:17:42;;;;;;;0.90;0.90;;;;;;;;;;1834574;77;25669;-43
2022/10/25 09:20:20;;;;;;;1.10;1.10;;;;;;;;;;1832871;76;26260;-49
2022/10/25 09:22:48;;;;;;;1.57;1.05;;;;;;;;;;1833334;77;26643;-47
2022/10/25 09:25:26;;;;;;;1.35;1.15;;;;;;;;;;1841525;76;26345;-49
2022/10/25 09:28:02;;;;;;;1.00;1.00;;;;;;;;;;1841725;76;26275;-51
2022/10/25 09:30:37;;;;;;;1.40;1.00;;;;;;;;;;1839038;76;26220;-45
2022/10/25 09:33:06;;;;;;;1.10;1.10;;;;;;;;;;1834125;76;26738;-44
2022/10/25 09:35:34;;;;;;;0.93;0.93;;;;;;;;;;1855773;77;26661;-44
2022/10/25 09:38:03;;;;;;;1.02;1.02;;;;;;;;;;1847886;77;26616;-42
2022/10/25 09:40:35;;;;;;;1.10;1.10;;;;;;;;;;1849469;77;26273;-43
2022/10/25 09:43:04;;;;;;;1.12;1.12;;;;;;;;;;1856957;75;26234;-52
2022/10/25 09:45:38;;;;;;;1.30;1.20;;;;;;;;;;1858077;77;26718;-47
2022/10/25 09:48:06;;;;;;;1.00;1.00;;;;;;;;;;1856072;77;26475;-48
2022/10/25 09:50:41;;;;;;;1.10;1.10;;;;;;;;;;1848989;77;26840;-54
2022/10/25 09:53:13;;;;;;;1.07;1.07;;;;;;;;;;1843041;76;26207;-44
2022/10/25 09:55:41;;;;;;;1.10;1.10;;;;;;;;;;1851533;77;26298;-44
2022/10/25 09:58:10;;;;;;;1.12;1.12;;;;;;;;;;1857315;77;26203;-46
2022/10/25 10:00:39;;;;;;;1.10;1.10;;;;;;;;;;1853878;77;26347;-49
2022/10/25 10:03:08;;;;;;;1.10;1.10;;;;;;;;;;1844139;77;26654;-55
2022/10/25 10:05:36;;;;;;;1.10;1.10;;;;;;;;;;1858104;77;26239;-56
2022/10/25 10:08:03;;;;;;;1.20;1.20;;;;;;;;;;1830195;76;26259;-44
2022/10/25 10:10:32;;;;;;;1.00;1.00;;;;;;;;;;1849259;76;26220;-53
2022/10/25 10:13:01;;;;;;;1.10;1.10;;;;;;;;;;1851274;77;26197;-44
2022/10/25 10:15:29;;;;;;;1.00;1.00;;;;;;;;;;1847935;77;26228;-48
2022/10/25 10:18:15;;;;;;;1.10;1.10;;;;;;;;;;1840096;76;26273;-63
2022/10/25 10:20:43;;;;;;;1.17;1.10;;;;;;;;;;1843687;76;26212;-50
2022/10/25 10:23:12;;;;;;;1.17;1.12;;;;;;;;;;1844447;76;26364;-57
2022/10/25 10:25:41;;;;;;;1.02;1.02;;;;;;;;;;1847968;76;26288;-58
2022/10/25 10:28:10;;;;;;;1.17;1.17;;;;;;;;;;1844312;76;26325;-47
2022/10/25 10:30:38;;;;;;;1.20;1.20;;;;;;;;;;1836700;76;26312;-45
2022/10/25 10:33:08;;;;;;;2.10;1.20;;;;;;;;;;1838656;76;26289;-52
2022/10/25 10:35:36;;;;;;;1.45;1.25;;;;;;;;;;1840790;76;26405;-53
2022/10/25 10:38:23;;;;;;;1.00;1.00;;;;;;;;;;1838642;76;26255;-51
2022/10/25 10:40:51;;;;;;;1.95;1.12;;;;;;;;;;1836789;76;26258;-48
2022/10/25 10:43:29;;;;;;;1.17;1.17;;;;;;;;;;1838370;76;26251;-49
2022/10/25 10:46:04;;;;;;;1.10;1.10;;;;;;;;;;1832224;76;26809;-47
2022/10/25 10:48:33;;;;;;;1.10;1.10;;;;;;;;;;1836290;76;26336;-64
2022/10/25 10:51:01;;;;;;;1.10;1.10;;;;;;;;;;1836918;76;26275;-43
2022/10/25 10:53:31;;;;;;;0.93;0.93;;;;;;;;;;1835717;76;26333;-63
2022/10/25 10:56:05;;;;;;;0.93;0.93;;;;;;;;;;1835796;76;26349;-45
2022/10/25 10:58:36;;;;;;;1.07;1.07;;;;;;;;;;1836681;76;26801;-45
2022/10/25 11:01:11;;;;;;;0.90;0.90;;;;;;;;;;1838348;76;26302;-45
2022/10/25 11:03:40;;;;;;;1.10;1.10;;;;;;;;;;1841812;76;26215;-43
2022/10/25 11:06:14;;;;;;;0.90;0.90;;;;;;;;;;1838497;76;26267;-53
2022/10/25 11:08:43;;;;;;;1.00;1.00;;;;;;;;;;1839504;76;26309;-43
2022/10/25 11:11:22;;;;;;;1.00;1.00;;;;;;;;;;1835729;76;26663;-48
2022/10/25 11:13:54;;;;;;;0.90;0.90;;;;;;;;;;1837219;76;26274;-59
2022/10/25 11:16:32;;;;;;;1.15;1.15;;;;;;;;;;1832952;76;26268;-48
2022/10/25 11:19:17;;;;;;;0.98;0.98;;;;;;;;;;1836028;76;26260;-52
2022/10/25 11:21:46;;;;;;;1.02;1.02;;;;;;;;;;1827883;77;26634;-43
2022/10/25 11:24:18;;;;;;;1.00;1.00;;;;;;;;;;1821568;76;26291;-45
2022/10/25 11:26:58;;;;;;;1.00;1.00;;;;;;;;;;1829293;77;26793;-60
2022/10/25 11:29:27;;;;;;;0.90;0.90;;;;;;;;;;1829619;77;26266;-61
2022/10/25 11:31:56;;;;;;;0.93;0.93;;;;;;;;;;1827565;77;26330;-57
2022/10/25 11:34:25;;;;;;;1.07;1.07;;;;;;;;;;1822389;76;27088;-50
2022/10/25 11:36:59;;;;;;;1.02;1.02;;;;;;;;;;1828436;77;26763;-46
2022/10/25 11:39:28;;;;;;;0.80;0.80;;;;;;;;;;1824250;77;26386;-50
2022/10/25 11:42:09;;;;;;;1.02;1.02;;;;;;;;;;1825321;76;26767;-46
2022/10/25 11:44:50;;;;;;;1.00;1.00;;;;;;;;;;1827991;77;26304;-55
2022/10/25 11:47:28;;;;;;;1.10;1.10;;;;;;;;;;1826990;76;26565;-57
2022/10/25 11:50:15;;;;;;;1.00;1.00;;;;;;;;;;1826971;76;26264;-45
2022/10/25 11:53:00;;;;;;;0.90;0.90;;;;;;;;;;1826117;76;26871;-46
2022/10/25 11:55:41;;;;;;;0.90;0.90;;;;;;;;;;1826067;77;26732;-44
2022/10/25 11:58:10;;;;;;;0.85;0.85;;;;;;;;;;1823608;76;26315;-44
2022/10/25 12:00:39;;;;;;;0.98;0.98;;;;;;;;;;1822595;76;26250;-47
2022/10/25 12:03:08;;;;;;;0.82;0.82;;;;;;;;;;1823235;77;26265;-46
2022/10/25 12:05:53;;;;;;;0.80;0.80;;;;;;;;;;1811351;76;26777;-46
2022/10/25 12:08:22;;;;;;;0.90;0.90;;;;;;;;;;1828055;77;27882;-55
2022/10/25 12:10:51;;;;;;;0.82;0.82;;;;;;;;;;1822891;77;26284;-48
2022/10/25 12:13:32;;;;;;;0.90;0.90;;;;;;;;;;1821863;77;26293;-51
2022/10/25 12:15:59;;;;;;;0.90;0.90;;;;;;;;;;1828369;76;26774;-42
2022/10/25 12:18:28;;;;;;;0.90;0.90;;;;;;;;;;1824929;77;26369;-43
2022/10/25 12:20:56;;;;;;;0.90;0.90;;;;;;;;;;1831089;76;26272;-53
2022/10/25 12:23:25;;;;;;;0.98;0.98;;;;;;;;;;1838969;76;26728;-46
2022/10/25 12:25:59;;;;;;;0.93;0.93;;;;;;;;;;1837367;76;26310;-51
2022/10/25 12:28:28;;;;;;;1.00;1.00;;;;;;;;;;1837332;76;26294;-49
2022/10/25 12:30:57;;;;;;;1.00;1.00;;;;;;;;;;1841963;76;26281;-44
2022/10/25 12:33:26;;;;;;;0.80;0.80;;;;;;;;;;1834018;76;26234;-67
2022/10/25 12:35:55;;;;;;;1.05;1.05;;;;;;;;;;1841700;76;26185;-49
2022/10/25 12:38:36;;;;;;;0.85;0.85;;;;;;;;;;1838982;76;26303;-55
2022/10/25 12:41:05;;;;;;;0.80;0.80;;;;;;;;;;1840224;76;26380;-42
2022/10/25 12:43:36;;;;;;;0.90;0.90;;;;;;;;;;1840804;76;27164;-45
2022/10/25 12:46:05;;;;;;;0.82;0.82;;;;;;;;;;1836583;76;26349;-56
2022/10/25 12:48:49;;;;;;;0.70;0.70;;;;;;;;;;1795623;76;26321;-45
2022/10/25 12:51:23;;;;;;;0.80;0.80;;;;;;;;;;1839345;76;26327;-50
2022/10/25 12:53:59;;;;;;;0.80;0.80;;;;;;;;;;1837534;76;26712;-51
2022/10/25 12:56:27;;;;;;;0.70;0.70;;;;;;;;;;1835090;76;26753;-45
2022/10/25 12:58:59;;;;;;;0.80;0.80;;;;;;;;;;1840497;76;26887;-55
2022/10/25 13:01:34;;;;;;;1.02;1.02;;;;;;;;;;1836919;76;26756;-52
2022/10/25 13:04:05;;;;;;;0.88;0.88;;;;;;;;;;1836679;76;26303;-44
2022/10/25 13:06:34;;;;;;;0.80;0.80;;;;;;;;;;1838299;76;26279;-46
2022/10/25 13:09:03;;;;;;;0.80;0.80;;;;;;;;;;1840129;76;26237;-42
2022/10/25 13:11:35;;;;;;;0.90;0.90;;;;;;;;;;1831575;76;26267;-60
2022/10/25 13:14:02;;;;;;;0.80;0.80;;;;;;;;;;1841659;76;26444;-64
2022/10/25 13:16:31;;;;;;;0.90;0.90;;;;;;;;;;1840540;76;26196;-50
2022/10/25 13:19:14;;;;;;;0.80;0.80;;;;;;;;;;1833677;76;26251;-50
2022/10/25 13:21:55;;;;;;;0.60;0.60;;;;;;;;;;1829704;76;26351;-46
2022/10/25 13:24:40;;;;;;;0.82;0.82;;;;;;;;;;1827252;76;26223;-51
2022/10/25 13:27:15;;;;;;;0.70;0.70;;;;;;;;;;1829177;77;26768;-59
2022/10/25 13:29:49;;;;;;;0.75;0.75;;;;;;;;;;1825427;77;27246;-43
2022/10/25 13:32:20;;;;;;;0.70;0.70;;;;;;;;;;1824098;76;26811;-47
2022/10/25 13:34:48;;;;;;;0.70;0.70;;;;;;;;;;1822704;77;26609;-48
2022/10/25 13:37:23;;;;;;;0.70;0.70;;;;;;;;;;1828742;77;26298;-54
2022/10/25 13:39:53;;;;;;;0.65;0.65;;;;;;;;;;1822335;77;26709;-50
2022/10/25 13:42:22;;;;;;;0.65;0.65;;;;;;;;;;1824252;76;26330;-46
2022/10/25 13:44:57;;;;;;;0.70;0.70;;;;;;;;;;1828981;76;26751;-47
2022/10/25 13:47:38;;;;;;;0.70;0.70;;;;;;;;;;1829168;77;27516;-47
2022/10/25 13:50:13;;;;;;;0.70;0.70;;;;;;;;;;1823378;77;26738;-44
2022/10/25 13:52:45;;;;;;;0.70;0.70;;;;;;;;;;1797004;76;26304;-42
2022/10/25 13:55:14;;;;;;;0.80;0.80;;;;;;;;;;1826191;77;26319;-54
2022/10/25 13:57:48;;;;;;;0.70;0.70;;;;;;;;;;1829333;76;26227;-42
2022/10/25 14:00:26;;;;;;;0.80;0.80;;;;;;;;;;1828541;77;27473;-48
2022/10/25 14:03:07;;;;;;;0.60;0.60;;;;;;;;;;1823855;77;26321;-43
2022/10/25 14:05:55;;;;;;;0.60;0.60;;;;;;;;;;1823262;76;26674;-43
2022/10/25 14:08:24;;;;;;;0.60;0.60;;;;;;;;;;1825465;77;26268;-45
2022/10/25 14:10:52;;;;;;;0.70;0.70;;;;;;;;;;1828959;77;26356;-49
2022/10/25 14:13:30;;;;;;;0.60;0.60;;;;;;;;;;1823872;77;26771;-50
2022/10/25 14:15:58;;;;;;;0.70;0.70;;;;;;;;;;1825954;77;26868;-49
2022/10/25 14:18:27;;;;;;;0.65;0.65;;;;;;;;;;1833108;77;26267;-43
2022/10/25 14:20:59;;;;;;;0.70;0.70;;;;;;;;;;1816989;77;26320;-50
2022/10/25 14:23:33;;;;;;;0.60;0.60;;;;;;;;;;1793998;78;26818;-42
2022/10/25 14:25:58;;;;;;;0.50;0.50;;;;;;;;;;1797960;78;26374;-45
2022/10/25 14:28:27;;;;;;;0.60;0.60;;;;;;;;;;1796128;78;26798;-53
2022/10/25 14:31:01;;;;;;;0.53;0.53;;;;;;;;;;1791437;78;26223;-48
2022/10/25 14:33:36;;;;;;;0.50;0.50;;;;;;;;;;1798402;78;26314;-46
2022/10/25 14:36:22;;;;;;;0.70;0.70;;;;;;;;;;1797184;78;26815;-41
2022/10/25 14:38:51;;;;;;;0.50;0.50;;;;;;;;;;1799532;78;26803;-50
2022/10/25 14:41:25;;;;;;;1.77;0.50;;;;;;;;;;1800304;78;26342;-51
2022/10/25 14:43:53;;;;;;;0.50;0.50;;;;;;;;;;1801098;78;26252;-53
2022/10/25 14:46:21;;;;;;;0.50;0.50;;;;;;;;;;1796529;78;26417;-45
2022/10/25 14:48:49;;;;;;;0.60;0.60;;;;;;;;;;1797484;78;26392;-45
2022/10/25 14:51:21;;;;;;;0.70;0.70;;;;;;;;;;1794370;78;26682;-46
2022/10/25 14:53:50;;;;;;;0.53;0.53;;;;;;;;;;1791600;78;26731;-47
2022/10/25 14:56:31;;;;;;;0.50;0.50;;;;;;;;;;1796213;78;26701;-46
2022/10/25 14:58:59;;;;;;;0.70;0.70;;;;;;;;;;1794594;78;26630;-48
2022/10/25 15:01:26;;;;;;;0.60;0.60;;;;;;;;;;1791167;78;27861;-52